Putnamville, Indiana
Current Conditions -  °F | °C
As of 1:35 PM on Monday 26 Jan 2015 (Local Time) from K4I7 Reporting Station
Overcast Overcast  
Wind Chill: 28°   Ceiling: 1800
Heat Index: 28°   Visibility: 10mi
Dew Point: 18°   Wind: 3mph
Humidity: 64%   Direction: 230°SW
Pressure: 29.91"   Gusts: NA
Location:  39.57°N, 86.87°W
Report Text: K4I7 261835Z AUTO 23003KT 10SM OVC018 M02/M08 A2991 RMK AO2
Loading
Personal Weather Stations






























Interactive Weather Map New forecast layout! Learn more

10-Day Weather Forecast

Advertisements
Track Severe Weather on mobile